Terminal Aerodrome Forecast
Issued by NWS Kansas City/Pleasant Hill, MO

Home | Current Version | Previous Version | Text Only | Print | Product List | Glossary On
Versions: 1 2 3 4 5 6 7 8 9 10 11 12 13 14 15
671
FTUS43 KEAX 272328
TAFMCI
TAF
KMCI 272328Z 2800/2824 15010KT P6SM SCT050
     FM280600 18008KT P6SM VCSH BKN025
      TEMPO 2806/2809 4SM BR BKN015
     FM281500 21015G22KT P6SM SCT035=

USA.gov is the U.S. government's official web portal to all federal, state and local government web resources and services.